world map with DAAD marked

DAAD - Airport

This information may not be accurate or current and is not valid for navigation or flight planning. No warranty of fitness for any purpose is made or implied.

flag of Algeria

Donate via PayPal

Additional information is available on the NEW Great Circle Mapper

Location
City:  Bou Saada, Msila, Algeria
Near (Alt.):Boussaada
Name:Ain Eddis
ICAO / IATA:DAAD / BUJ

Details
Type:Airport (Aerodrome, Airfield)
Latitude:35°19'53"N (35.331389)
Longitude:4°12'16"E (4.204444)
Elevation:1506 ft (459 m)
Runways:1
Longest:7218 × 98 ft (2200 × 30 m)

Time
Timezone:UTC+1 (DST+3)
Local Time:

Weather
METAR:DAAD  041400Z 34024KT 8000 FEW026 BKN030 10/M01 Q1022
TAF:DAAD  (expired)

Related Locations
Nearby:
Farthest:NZJP: 12062 mi / 19412 km
Te Puia Springs [Hospital Heliport], GIS, NZ

Find:

   beyond  
but within

Other Information
Maps:
Sources:

  


 


Great Circle Mapper   Great Circle Mapper
Great Circle Mapper FAQ   Great Circle Mapper FAQ
  Karl's Home Page
KLSē   KLSē Home
   GC on Facebook
Airlines of the World   Airlines of the World
Donate via PayPal


Copyright © 2004-2019, Karl L. Swartz. All rights reserved.
All trademarks mentioned herein belong to their respective owners.

Please see credits for attribution and copyright information.

Karl Swartz <karl@kls2.com>
  Powered by FreeBSD
Valid HTML 4.01!
Labeled with ICRA
hCard Microformat
Geo Microformat